Weather at Laguna Tower Shinagawa Helipad

Public forecast

Using degrees Celsius for public forecast. Weather courtesy of forecast.io.

Closest aviation weather report (METAR) to Laguna Tower Shinagawa Helipad

Closest report is Tokyo Haneda International Airport, 4.1 nm (7.7 km) SSE.

2024/06/21 17:00 (retrieved 16 minutes ago)

RJTT 211700Z 30009KT CAVOK 19/16 Q1006 NOSIG

Closest aviation forecast (TAF) to Laguna Tower Shinagawa Helipad

Closest forecast is Tokyo Haneda International Airport, 4.1 nm (7.7 km) SSE.

2024/06/21 12:35 (retrieved 5 hours ago)

TAF RJTT 211105Z 2112/2218 36014KT 9999 FEW030 BECMG 2115/2117 30004KT BECMG 2120/2122 20006KT BECMG 2200/2203 18018KT